AirNav   Pilot Hours Calculator
 
 864 users online  

5M1 Dewitt Municipal Airport/Whitcomb Field
De Witt, Arkansas, USA

GOING TO DE WITT?


FAA INFORMATION EFFECTIVE 11 AUGUST 2022

Location

FAA Identifier: 5M1
Lat/Long: 34-15-44.2000N 091-18-27.0000W
34-15.736667N 091-18.450000W
34.2622778,-91.3075000
(estimated)
Elevation: 188.8 ft. / 57.5 m (surveyed)
Variation: 01W (2025)
From city: 3 miles SE of DE WITT, AR
Time zone: UTC -5 (UTC -6 during Standard Time)
Zip code: 72042

Airport Operations

Airport use: Open to the public
Activation date: 06/1970
Control tower: no
ARTCC: MEMPHIS CENTER
FSS: JONESBORO FLIGHT SERVICE STATION
NOTAMs facility: JBR (NOTAM-D service available)
Attendance: MON-FRI 0800-1700, MAR-AUG SAT 0700-1200
FOR SVC AFT HRS CALL 870-830-3091 OR 870-946-1745
Wind indicator: lighted
Segmented circle: yes
Lights: ACTVT REIL RWY 18 & 36; PAPI RWY 18 & 36; MIRL RWY 18/36 - CTAF.
Beacon: white-green (lighted land airport)
Operates sunset to sunrise.

Airport Communications

CTAF: 122.9
  • APCH/DEP SVC PRVDD BY MEMPHIS ARTCC ON FREQS 135.3/335.8(BRINKLEY RCAG).

Nearby radio navigation aids

VOR radial/distance  VOR name  Freq  Var
PBFr084/30.7PINE BLUFF VOR/DME116.0004E
UJMr238/36.5MARVELL VOR/DME109.6001E

Airport Services

Fuel available: 100LL
100LL:FUEL AVBL 24 HR SELF SERVE WITH CREDIT CARD.
Parking: tiedowns
Airframe service: MAJOR
Powerplant service: MAJOR
Bottled oxygen: NONE
Bulk oxygen: NONE

Runway Information

Runway 18/36

Dimensions: 3205 x 60 ft. / 977 x 18 m
Surface: asphalt, in good condition
Weight bearing capacity: 
Single wheel: 12.0
Runway edge lights: medium intensity
RUNWAY 18  RUNWAY 36
Latitude: 34-16.000862N34-15.472687N
Longitude: 091-18.441250W091-18.457420W
Elevation: 188.7 ft.188.0 ft.
Traffic pattern: leftleft
Runway heading: 182 magnetic, 181 true002 magnetic, 001 true
Markings: nonprecision, in good conditionnonprecision, in good condition
Visual slope indicator: 2-light PAPI on left (3.00 degrees glide path)2-light PAPI on left (3.00 degrees glide path)
Runway end identifier lights: yesyes
Touchdown point: yes, no lightsyes, no lights
Obstructions: 15 ft. road, 450 ft. from runway, 16:1 slope to clearnone

Airport Ownership and Management from official FAA records

Ownership: Publicly-owned
Owner: CITY OF DE WITT
120 COURT SQUARE
DE WITT, AR 72042
Phone 870-946-2191
Manager: MATTHEW AUFDERHEIDE
821 W. 5TH
DEWITT, AR 72042
Phone 870-830-3091

Airport Operational Statistics

Aircraft based on the field: 15
Single engine airplanes: 15
    
Aircraft operations: avg 140/day *
98% local general aviation
2% transient general aviation
<1% military
* for 12-month period ending 31 August 2020

Additional Remarks

FOR CD CTC MEMPHIS ARTCC AT 901-368-8453/8449.

Instrument Procedures

NOTE: All procedures below are presented as PDF files. If you need a reader for these files, you should download the free Adobe Reader.

NOT FOR NAVIGATION. Please procure official charts for flight.
FAA instrument procedures published for use from 11 August 2022 at 0901Z to 08 September 2022 at 0900z.

 
IAPs - Instrument Approach Procedures
RNAV (GPS) RWY 18 **CHANGED**   download (198KB)
RNAV (GPS) RWY 36 **CHANGED**   download (218KB)
NOTE: Special Take-Off Minimums/Departure Procedures apply   download (391KB)

Other nearby airports with instrument procedures:

M73 - Almyra Municipal Airport (12 nm NW)
KSGT - Stuttgart Municipal Airport / Carl Humphrey Field (24 nm NW)
0M0 - Billy Free Municipal Airport (25 nm SW)
KPBF - Pinebluff Regional Airport/Grider Field (32 nm W)
KHEE - Thompson-Robbins Airport (37 nm NE)
 
Loc | Ops | Rwys | IFR | FBO | Links
Com | Nav | Svcs | Stats | Notes
Area around 5M1 (Dewitt Municipal Airport/Whitcomb Field)
 
Road maps at: MapQuest Bing Google
 
Aerial photo
WARNING: Photo may not be current or correct
Aerial photo of 5M1 (Dewitt Municipal Airport/Whitcomb Field)
Photo courtesy of the Arkansas Department of Aeronautics
Taken in the Spring of 2007

Do you have a better or more recent aerial photo of Dewitt Municipal Airport/Whitcomb Field that you would like to share? If so, please send us your photo.

 
Sectional chart

 
Airport distance calculator
Flying to Dewitt Municipal Airport/Whitcomb Field? Find the distance to fly.

From to 5M1

Sunrise and sunset
Times for 16-Aug-2022
 Local
(UTC-5)
 Zulu
(UTC)
Morning civil twilight06:0211:02
Sunrise06:2811:28
Sunset19:5100:51
Evening civil twilight20:1701:17

Current date and time
Zulu (UTC)  17-Aug-2022 04:28:23
Local (UTC-5)  16-Aug-2022 23:28:23
 
METAR
KSGT 
24nm NW 
170356Z AUTO 06014KT 10SM BKN080 BKN095 24/22 A2997 RMK AO2 SLP146 T02440217
KPBF 
31nm W 
170353Z AUTO 06004KT 10SM CLR 26/23 A2995 RMK AO2 SLP139 T02560228
KCKM 
39nm E 
170415Z AUTO 03009KT 10SM FEW032 FEW037 SCT044 25/24 A2996 RMK A01
KRNV 
41nm SE 
170415Z AUTO 18003KT 10SM CLR 25/24 A2994 RMK AO2 T02500237 TSNO
KLLQ 
44nm SW 
170353Z AUTO 04003KT 10SM CLR 24/23 A2993 RMK AO2 SLP131 T02440233
TAF
KPBF 
31nm W 
161720Z 1618/1718 VRB05KT P6SM SCT060 TEMPO 1621/1701 4SM TSRA BR SCT025CB BKN060 FM170100 VRB04KT P6SM SCT025 OVC050 PROB30 1706/1712 4SM TSRA BR SCT010CB OVC025 FM171200 VRB06KT P6SM VCSH SCT005 OVC010 PROB30 1712/1718 4SM TSRA BR BKN005 OVC010CB
NOTAMs
Click for the latest NOTAMs
NOTAMs are issued by the DoD/FAA and will open in a separate window not controlled by AirNav.

 

 
 

FBO, Fuel Providers, and Aircraft Ground Support

  
 Business Name 
 
 Contact 
 
 Services / Description 
 
Fuel Prices
 
Comments
  
DeWitt Municipal Airport 870-946-3838
no information available

If you are affiliated with DeWitt Municipal Airport and would like to show here your services, contact info, web link, logo, and more, click here
100LL
SS $6.60 
 Updated 09-Aug-2022
 
   write
SS=Self service
Update Fuel Prices
 

Would you like to see your business listed on this page?

 If your business provides an interesting product or service to pilots, flight crews, aircraft, or users of the Dewitt Municipal Airport/Whitcomb Field, you should consider listing it here.  To start the listing process, click on the button below
 
Add a business
 

Other Pages about Dewitt Municipal Airport/Whitcomb Field

Update a link
 
Copyright © AirNav, LLC. All rights reserved. Privacy Policy  Contact